Time;durP1;ratioP1;P1;durP2;ratioP2;P2;SDS_P1;SDS_P2;PMS_P1;PMS_P2;Temp;Humidity;BMP_temperature;BMP_pressure;BME280_temperature;BME280_humidity;BME280_pressure;Samples;Min_cycle;Max_cycle;Signal;HPM_P1;HPM_P2
2021/04/22 00:01:47;;;;;;;;;;;;;;;9.25;57.90;95291.94;5003880;28;19917;-79
2021/04/22 00:04:12;;;;;;;;;;;;;;;9.31;58.35;95297.09;5003648;28;20375;-80
2021/04/22 00:06:37;;;;;;;;;;;;;;;9.18;59.37;95296.38;5011266;28;19917;-80
2021/04/22 00:09:07;;;;;;;;;;;;;;;9.17;58.61;95298.19;5003800;28;19929;-80
2021/04/22 00:11:33;;;;;;;;;;;;;;;9.17;58.67;95294.81;5004471;28;19921;-80
2021/04/22 00:13:58;;;;;;;;;;;;;;;9.06;58.96;95292.88;5003192;28;19940;-80
2021/04/22 00:16:23;;;;;;;;;;;;;;;9.03;58.66;95291.50;4999655;28;19924;-80
2021/04/22 00:18:49;;;;;;;;;;;;;;;8.96;58.97;95283.78;5004554;28;19924;-80
2021/04/22 00:21:14;;;;;;;;;;;;;;;8.85;59.37;95287.03;5006278;28;19948;-80
2021/04/22 00:23:39;;;;;;;;;;;;;;;8.79;59.38;95287.88;5004431;28;20447;-80
2021/04/22 00:26:04;;;;;;;;;;;;;;;8.85;59.51;95287.03;5002563;28;19960;-80
2021/04/22 00:28:30;;;;;;;;;;;;;;;8.81;59.16;95285.88;5001978;28;19917;-80
2021/04/22 00:30:56;;;;;;;;;;;;;;;8.79;59.46;95287.88;5004718;28;19921;-80
2021/04/22 00:33:21;;;;;;;;;;;;;;;8.79;59.65;95285.28;5000416;28;20304;-80
2021/04/22 00:35:46;;;;;;;;;;;;;;;8.74;59.39;95295.47;5008726;28;20192;-80
2021/04/22 00:38:12;;;;;;;;;;;;;;;8.72;59.39;95300.06;5019656;28;19984;-80
2021/04/22 00:40:38;;;;;;;;;;;;;;;8.63;59.94;95290.97;5009361;28;19964;-79
2021/04/22 00:43:04;;;;;;;;;;;;;;;8.54;60.24;95295.56;5003685;28;19928;-79
2021/04/22 00:45:29;;;;;;;;;;;;;;;8.59;60.25;95293.16;5003037;28;20035;-79
2021/04/22 00:47:55;;;;;;;;;;;;;;;8.56;59.66;95293.56;5001137;28;19956;-78
2021/04/22 00:50:21;;;;;;;;;;;;;;;8.53;60.35;95291.38;5004854;28;20379;-80
2021/04/22 00:52:54;;;;;;;;;;;;;;;8.59;59.44;95292.34;5014573;28;19969;-80
2021/04/22 00:55:19;;;;;;;;;;;;;;;8.50;60.21;95298.78;5028770;28;19955;-80
2021/04/22 00:57:44;;;;;;;;;;;;;;;8.46;60.00;95298.41;5016494;28;19925;-80
2021/04/22 01:00:10;;;;;;;;;;;;;;;8.41;60.22;95301.59;5004636;28;19921;-80
2021/04/22 01:02:36;;;;;;;;;;;;;;;8.37;60.38;95305.63;4994263;28;19920;-80
2021/04/22 01:05:05;;;;;;;;;;;;;;;8.39;59.82;95302.81;5061269;22;19921;-80
2021/04/22 01:07:30;;;;;;;;;;;;;;;8.32;60.29;95304.63;4999166;28;19918;-80
2021/04/22 01:09:58;;;;;;;;;;;;;;;8.35;60.03;95307.63;5007842;28;19925;-80
2021/04/22 01:12:24;;;;;;;;;;;;;;;8.28;60.19;95306.81;4989681;28;19925;-81
2021/04/22 01:14:49;;;;;;;;;;;;;;;8.35;60.69;95306.81;4999249;28;19918;-81
2021/04/22 01:17:14;;;;;;;;;;;;;;;8.30;60.65;95304.81;4986515;28;20009;-80
2021/04/22 01:19:39;;;;;;;;;;;;;;;8.34;60.22;95307.81;4985684;28;19925;-80
2021/04/22 01:22:05;;;;;;;;;;;;;;;8.27;60.38;95300.03;5068326;23;19929;-80
2021/04/22 01:24:30;;;;;;;;;;;;;;;8.22;60.49;95305.03;4979815;28;19932;-81
2021/04/22 01:26:55;;;;;;;;;;;;;;;8.19;60.76;95309.84;4981990;28;19922;-80
2021/04/22 01:29:20;;;;;;;;;;;;;;;8.20;60.91;95314.03;4977909;28;20425;-80
2021/04/22 01:31:46;;;;;;;;;;;;;;;8.23;60.94;95305.84;4974932;28;19917;-79
2021/04/22 01:34:11;;;;;;;;;;;;;;;8.22;60.57;95310.22;4974857;28;19954;-80
2021/04/22 01:36:38;;;;;;;;;;;;;;;8.15;60.68;95312.06;4972306;28;20012;-80
2021/04/22 01:39:04;;;;;;;;;;;;;;;8.16;60.67;95308.47;4973884;28;19921;-80
2021/04/22 01:41:29;;;;;;;;;;;;;;;8.20;60.55;95309.63;4973018;28;20627;-80
2021/04/22 01:43:54;;;;;;;;;;;;;;;8.05;61.02;95304.69;4975726;28;19918;-80
2021/04/22 01:46:20;;;;;;;;;;;;;;;8.07;60.75;95304.50;4972549;28;19918;-80
2021/04/22 01:48:45;;;;;;;;;;;;;;;8.13;61.07;95311.44;4973398;28;19957;-80
2021/04/22 01:51:10;;;;;;;;;;;;;;;8.02;61.10;95315.47;4973504;28;19918;-80
2021/04/22 01:53:35;;;;;;;;;;;;;;;7.98;61.56;95305.72;5052969;22;19922;-80
2021/04/22 01:56:01;;;;;;;;;;;;;;;7.95;61.54;95304.31;4992705;28;19918;-81
2021/04/22 01:58:26;;;;;;;;;;;;;;;7.93;61.49;95298.53;4992997;28;19975;-81
2021/04/22 02:03:32;;;;;;;;;;;;;;;7.90;60.55;95303.34;4983310;28;20341;-80
2021/04/22 02:05:57;;;;;;;;;;;;;;;7.94;60.40;95309.69;4997423;28;19964;-80
2021/04/22 02:08:22;;;;;;;;;;;;;;;7.91;61.02;95304.94;4988422;28;19926;-79
2021/04/22 02:10:47;;;;;;;;;;;;;;;7.87;60.65;95301.94;5001662;23;19933;-79
2021/04/22 02:13:13;;;;;;;;;;;;;;;7.70;61.01;95306.75;4991141;28;19937;-79
2021/04/22 02:15:41;;;;;;;;;;;;;;;7.70;61.19;95306.75;4990316;28;20385;-78
2021/04/22 02:18:06;;;;;;;;;;;;;;;7.75;61.35;95304.34;5004981;28;19929;-79
2021/04/22 02:20:31;;;;;;;;;;;;;;;7.80;60.67;95304.53;5005852;23;19921;-79
2021/04/22 02:22:56;;;;;;;;;;;;;;;7.68;60.82;95310.56;4990797;28;19928;-79
2021/04/22 02:25:22;;;;;;;;;;;;;;;7.64;60.80;95307.53;4991381;28;19917;-79
2021/04/22 02:27:48;;;;;;;;;;;;;;;7.63;60.49;95305.97;4973769;28;19928;-81
2021/04/22 02:30:13;;;;;;;;;;;;;;;7.64;61.38;95309.34;4988969;28;19914;-79
2021/04/22 02:32:38;;;;;;;;;;;;;;;7.66;61.04;95313.34;4995233;28;20360;-80
2021/04/22 02:35:05;;;;;;;;;;;;;;;7.67;61.03;95308.97;4992134;28;19968;-80
2021/04/22 02:37:30;;;;;;;;;;;;;;;7.53;61.59;95310.75;4993063;28;19913;-81
2021/04/22 02:39:55;;;;;;;;;;;;;;;7.53;61.28;95313.34;4992306;28;19977;-80
2021/04/22 02:42:20;;;;;;;;;;;;;;;7.46;62.07;95313.34;5001900;22;19922;-81
2021/04/22 02:44:46;;;;;;;;;;;;;;;7.48;61.72;95326.06;4981884;28;20452;-80
2021/04/22 02:47:11;;;;;;;;;;;;;;;7.39;62.43;95316.94;4984257;28;20258;-81
2021/04/22 02:49:36;;;;;;;;;;;;;;;7.39;62.61;95311.75;5005417;28;20005;-81
2021/04/22 02:52:02;;;;;;;;;;;;;;;7.43;62.49;95312.94;5002923;28;19941;-81
2021/04/22 02:54:27;;;;;;;;;;;;;;;7.39;61.79;95315.16;4980025;28;19918;-81
2021/04/22 02:56:52;;;;;;;;;;;;;;;7.45;61.35;95321.31;4980658;28;20386;-81
2021/04/22 02:59:17;;;;;;;;;;;;;;;7.42;61.99;95327.66;4982328;28;19921;-81
2021/04/22 03:01:43;;;;;;;;;;;;;;;7.35;62.58;95321.72;4983040;28;19921;-81
2021/04/22 03:04:08;;;;;;;;;;;;;;;7.40;62.20;95323.69;4981712;28;19960;-81
2021/04/22 03:06:33;;;;;;;;;;;;;;;7.41;62.12;95318.31;4983457;28;19922;-81
2021/04/22 03:08:58;;;;;;;;;;;;;;;7.28;62.74;95327.88;5019367;23;20227;-81
2021/04/22 03:11:24;;;;;;;;;;;;;;;7.30;62.34;95323.28;4998413;23;19932;-80
2021/04/22 03:13:49;;;;;;;;;;;;;;;7.25;61.92;95320.50;5013005;23;20011;-80
2021/04/22 03:16:14;;;;;;;;;;;;;;;7.19;62.37;95322.09;4992400;28;19925;-80
2021/04/22 03:18:39;;;;;;;;;;;;;;;7.27;62.34;95321.09;5015580;23;19936;-81
2021/04/22 03:21:04;;;;;;;;;;;;;;;7.15;62.38;95324.25;4992901;28;20016;-80
2021/04/22 03:23:30;;;;;;;;;;;;;;;7.12;62.44;95323.88;4982116;28;19918;-80
2021/04/22 03:25:55;;;;;;;;;;;;;;;7.20;62.09;95328.88;4975964;28;20396;-80
2021/04/22 03:28:20;;;;;;;;;;;;;;;7.19;62.35;95322.09;4976326;28;19949;-80
2021/04/22 03:30:45;;;;;;;;;;;;;;;7.12;61.74;95332.44;4976699;28;19926;-80
2021/04/22 03:33:11;;;;;;;;;;;;;;;6.98;62.15;95330.00;4980082;28;19929;-82
2021/04/22 03:35:36;;;;;;;;;;;;;;;7.03;62.57;95328.44;4973584;28;20405;-80
2021/04/22 03:38:02;;;;;;;;;;;;;;;7.12;61.62;95335.00;4977413;28;19972;-80
2021/04/22 03:40:27;;;;;;;;;;;;;;;7.03;62.44;95333.63;4974362;28;19929;-78
2021/04/22 03:42:53;;;;;;;;;;;;;;;7.10;62.72;95341.38;4975605;28;19961;-80
2021/04/22 03:45:18;;;;;;;;;;;;;;;7.13;61.81;95339.19;5012634;23;19933;-81
2021/04/22 03:47:43;;;;;;;;;;;;;;;7.13;61.78;95346.16;5014677;22;19921;-82
2021/04/22 03:50:09;;;;;;;;;;;;;;;7.19;62.09;95343.59;4989683;28;20001;-82
2021/04/22 03:52:35;;;;;;;;;;;;;;;7.26;62.26;95343.59;5051476;22;21023;-83
2021/04/22 03:55:00;;;;;;;;;;;;;;;7.33;61.54;95346.19;5121179;22;19978;-81
2021/04/22 03:57:25;;;;;;;;;;;;;;;7.29;61.62;95348.34;5002828;28;19952;-82
2021/04/22 03:59:50;;;;;;;;;;;;;;;7.57;60.91;95349.97;5021312;23;19933;-82
2021/04/22 04:02:18;;;;;;;;;;;;;;;7.88;60.47;95346.75;5002263;28;20404;-82
2021/04/22 04:04:43;;;;;;;;;;;;;;;8.57;58.58;95354.78;5002877;28;19922;-82
2021/04/22 04:07:08;;;;;;;;;;;;;;;9.56;55.96;95345.59;5007606;28;19935;-82
2021/04/22 04:09:33;;;;;;;;;;;;;;;10.55;52.54;95355.06;5014923;28;19918;-76
2021/04/22 04:14:26;;;;;;;;;;;;;;;12.64;47.53;95353.03;5059546;22;19922;-84
2021/04/22 04:16:51;;;;;;;;;;;;;;;13.71;44.30;95358.38;5005170;28;20439;-83
2021/04/22 04:19:16;;;;;;;;;;;;;;;14.69;42.01;95353.47;4985971;28;19917;-83
2021/04/22 04:21:42;;;;;;;;;;;;;;;15.67;39.57;95356.84;4968858;28;19914;-82
2021/04/22 04:24:07;;;;;;;;;;;;;;;16.77;37.18;95357.03;4971055;28;19932;-84
2021/04/22 04:26:33;;;;;;;;;;;;;;;17.80;34.71;95370.16;4969871;28;19955;-84
2021/04/22 04:29:01;;;;;;;;;;;;;;;18.76;33.43;95363.16;4986731;28;19922;-83
2021/04/22 04:31:27;;;;;;;;;;;;;;;19.72;31.35;95373.22;4988535;28;20588;-85
2021/04/22 04:33:52;;;;;;;;;;;;;;;20.62;29.39;95364.75;4981600;28;19925;-84
2021/04/22 04:36:17;;;;;;;;;;;;;;;21.49;28.95;95371.66;4982066;28;19918;-82
2021/04/22 04:38:43;;;;;;;;;;;;;;;22.48;27.00;95365.31;4998816;28;19965;-83
2021/04/22 04:41:08;;;;;;;;;;;;;;;23.23;26.08;95376.28;4982985;28;19922;-83
2021/04/22 04:43:33;;;;;;;;;;;;;;;23.98;24.93;95374.13;4980485;28;19926;-84
2021/04/22 04:45:58;;;;;;;;;;;;;;;24.76;23.81;95372.69;4998634;23;19921;-83
2021/04/22 04:48:24;;;;;;;;;;;;;;;25.43;22.89;95375.06;5004887;28;19965;-82
2021/04/22 04:50:49;;;;;;;;;;;;;;;26.08;22.08;95378.69;5006236;28;19917;-82
2021/04/22 04:53:15;;;;;;;;;;;;;;;26.93;20.88;95377.63;5006476;28;19921;-84
2021/04/22 04:55:40;;;;;;;;;;;;;;;27.26;20.35;95379.69;5002528;28;19945;-84
2021/04/22 04:58:05;;;;;;;;;;;;;;;28.18;19.63;95384.19;4984571;28;19918;-83
2021/04/22 05:00:30;;;;;;;;;;;;;;;28.58;18.50;95390.53;5006024;28;19929;-83
2021/04/22 05:02:56;;;;;;;;;;;;;;;29.45;18.37;95387.56;5007397;28;19949;-82
2021/04/22 05:05:21;;;;;;;;;;;;;;;29.73;17.65;95384.94;5005739;28;19924;-82
2021/04/22 05:07:46;;;;;;;;;;;;;;;30.40;17.06;95386.03;5003961;28;19914;-83
2021/04/22 05:10:12;;;;;;;;;;;;;;;30.98;16.16;95386.34;5002797;28;19918;-83
2021/04/22 05:12:37;;;;;;;;;;;;;;;31.80;15.88;95387.41;5002321;28;20008;-84
2021/04/22 05:15:06;;;;;;;;;;;;;;;32.27;15.25;95394.47;4999290;28;19918;-83
2021/04/22 05:17:31;;;;;;;;;;;;;;;32.73;14.75;95393.41;4983782;28;19918;-84
2021/04/22 05:19:57;;;;;;;;;;;;;;;33.08;14.08;95397.84;4985221;28;19989;-83
2021/04/22 05:22:22;;;;;;;;;;;;;;;33.48;13.83;95393.81;5001717;28;19918;-83
2021/04/22 05:24:47;;;;;;;;;;;;;;;33.86;13.68;95388.19;4984075;28;19921;-83
2021/04/22 05:27:13;;;;;;;;;;;;;;;34.49;13.13;95392.75;4983755;28;19940;-83
2021/04/22 05:29:38;;;;;;;;;;;;;;;35.06;13.07;95392.50;4999311;28;19918;-83
2021/04/22 05:32:03;;;;;;;;;;;;;;;35.55;12.47;95394.00;4983888;28;19921;-83
2021/04/22 05:34:29;;;;;;;;;;;;;;;35.87;12.33;95402.31;5003554;28;19941;-84
2021/04/22 05:36:54;;;;;;;;;;;;;;;36.26;11.85;95405.94;5000262;28;19921;-83
2021/04/22 05:39:22;;;;;;;;;;;;;;;36.38;11.41;95394.78;4999616;28;19926;-83
2021/04/22 05:41:47;;;;;;;;;;;;;;;36.67;11.66;95408.38;4998839;28;19921;-83
2021/04/22 05:44:12;;;;;;;;;;;;;;;36.89;11.02;95401.84;4982153;28;19925;-84
2021/04/22 05:46:41;;;;;;;;;;;;;;;36.81;11.71;95408.44;4984211;28;19925;-83
2021/04/22 05:49:06;;;;;;;;;;;;;;;36.83;11.17;95403.41;5001109;28;19944;-82
2021/04/22 05:51:41;;;;;;;;;;;;;;;36.87;11.35;95398.75;4993665;28;19917;-84
2021/04/22 05:54:11;;;;;;;;;;;;;;;36.28;11.32;95398.19;5001622;23;19922;-83
2021/04/22 05:56:36;;;;;;;;;;;;;;;35.32;12.16;95394.25;5001170;28;19917;-82
2021/04/22 05:59:02;;;;;;;;;;;;;;;35.40;12.02;95395.84;5002087;28;20013;-82
2021/04/22 06:01:27;;;;;;;;;;;;;;;34.72;12.70;95400.69;4998683;28;20675;-82
2021/04/22 06:03:52;;;;;;;;;;;;;;;33.29;13.78;95402.78;4999696;28;19918;-82
2021/04/22 06:06:17;;;;;;;;;;;;;;;31.87;15.00;95392.94;4986828;22;20080;-85
2021/04/22 06:08:43;;;;;;;;;;;;;;;30.99;15.73;95390.59;5001235;28;20393;-86
2021/04/22 06:11:08;;;;;;;;;;;;;;;29.69;16.99;95394.78;5072071;23;20011;-87
2021/04/22 06:13:33;;;;;;;;;;;;;;;28.78;17.79;95398.81;5000917;28;19928;-86
2021/04/22 06:15:59;;;;;;;;;;;;;;;28.30;18.34;95405.63;5012856;23;19982;-85
2021/04/22 06:18:24;;;;;;;;;;;;;;;27.72;18.77;95402.03;4998789;28;20000;-86
2021/04/22 06:20:49;;;;;;;;;;;;;;;26.97;19.86;95403.69;4996937;28;19918;-85
2021/04/22 06:23:15;;;;;;;;;;;;;;;26.47;20.42;95402.44;4982653;28;19925;-86
2021/04/22 06:25:40;;;;;;;;;;;;;;;26.07;20.73;95404.53;4998730;28;19914;-85
2021/04/22 06:28:05;;;;;;;;;;;;;;;25.45;21.49;95404.81;5007613;28;19921;-86
2021/04/22 06:30:33;;;;;;;;;;;;;;;25.00;22.67;95394.38;4997883;28;20052;-85
2021/04/22 06:32:59;;;;;;;;;;;;;;;24.32;22.94;95400.94;4997493;28;19918;-86
2021/04/22 06:35:24;;;;;;;;;;;;;;;24.01;23.80;95400.88;4981175;28;19914;-85
2021/04/22 06:37:50;;;;;;;;;;;;;;;23.58;24.09;95403.16;5084418;22;20386;-84
2021/04/22 06:40:16;;;;;;;;;;;;;;;23.33;24.72;95399.97;5015462;28;19918;-86
2021/04/22 06:42:41;;;;;;;;;;;;;;;23.09;25.00;95398.59;5012390;28;20380;-86
2021/04/22 06:45:07;;;;;;;;;;;;;;;22.69;25.50;95396.44;5016653;28;19917;-87
2021/04/22 06:47:32;;;;;;;;;;;;;;;22.56;25.62;95397.19;5015451;28;20313;-86
2021/04/22 06:49:57;;;;;;;;;;;;;;;22.39;26.62;95404.94;5017265;28;19923;-87
2021/04/22 06:52:23;;;;;;;;;;;;;;;22.31;26.22;95402.97;5001261;28;20308;-86
2021/04/22 06:54:51;;;;;;;;;;;;;;;22.07;26.43;95395.91;5018394;28;19918;-86
2021/04/22 06:57:16;;;;;;;;;;;;;;;21.91;26.65;95393.78;5017789;28;19960;-86
2021/04/22 06:59:41;;;;;;;;;;;;;;;21.80;27.00;95393.13;5017798;28;19967;-87
2021/04/22 07:02:08;;;;;;;;;;;;;;;21.73;26.92;95395.38;5018757;28;19921;-86
2021/04/22 07:04:33;;;;;;;;;;;;;;;21.78;26.79;95397.94;5018195;28;19984;-86
2021/04/22 07:06:58;;;;;;;;;;;;;;;21.55;26.95;95403.03;5019569;28;20227;-86
2021/04/22 07:09:26;;;;;;;;;;;;;;;21.31;27.32;95396.22;5034910;28;20023;-87
2021/04/22 07:12:17;;;;;;;;;;;;;;;21.26;27.61;95399.72;5001052;28;19917;-86
2021/04/22 07:14:42;;;;;;;;;;;;;;;21.27;27.76;95402.06;5022446;28;20417;-87
2021/04/22 07:17:07;;;;;;;;;;;;;;;21.49;27.83;95403.41;5007871;28;19932;-87
2021/04/22 07:19:33;;;;;;;;;;;;;;;21.64;27.52;95397.06;5017801;28;19976;-85
2021/04/22 07:21:58;;;;;;;;;;;;;;;21.73;27.00;95408.59;5001971;28;19917;-87
2021/04/22 07:24:23;;;;;;;;;;;;;;;21.79;27.09;95394.19;5020540;28;19921;-87
2021/04/22 07:26:49;;;;;;;;;;;;;;;21.73;26.83;95403.31;5018226;28;20017;-87
2021/04/22 07:29:14;;;;;;;;;;;;;;;21.63;26.78;95409.53;5001587;28;19921;-87
2021/04/22 07:31:39;;;;;;;;;;;;;;;21.66;27.17;95408.19;5018684;28;19925;-87
2021/04/22 07:34:05;;;;;;;;;;;;;;;21.69;27.22;95407.59;5017553;28;19984;-87
2021/04/22 07:36:30;;;;;;;;;;;;;;;21.53;27.06;95407.81;5016785;28;19917;-87
2021/04/22 07:38:55;;;;;;;;;;;;;;;21.46;27.39;95410.03;4998646;28;19925;-87
2021/04/22 07:41:21;;;;;;;;;;;;;;;21.31;27.21;95407.56;5016660;28;19918;-86
2021/04/22 07:43:46;;;;;;;;;;;;;;;21.05;28.02;95403.66;5016108;28;19918;-86
2021/04/22 07:46:12;;;;;;;;;;;;;;;20.84;27.95;95395.97;5000280;28;19917;-87
2021/04/22 07:48:37;;;;;;;;;;;;;;;20.74;29.18;95397.94;5000076;28;20107;-86
2021/04/22 07:51:03;;;;;;;;;;;;;;;20.78;28.48;95399.72;5016473;28;19997;-86
2021/04/22 07:53:28;;;;;;;;;;;;;;;20.62;28.55;95390.38;5026910;28;19927;-85
2021/04/22 07:55:53;;;;;;;;;;;;;;;20.59;28.60;95393.59;5013977;28;19921;-85
2021/04/22 07:58:19;;;;;;;;;;;;;;;20.56;28.90;95394.94;5013138;28;19921;-85
2021/04/22 08:00:44;;;;;;;;;;;;;;;20.60;28.73;95393.31;5012147;28;19933;-86
2021/04/22 08:03:12;;;;;;;;;;;;;;;20.71;28.58;95388.72;5013504;28;19914;-85
2021/04/22 08:05:37;;;;;;;;;;;;;;;20.64;28.85;95382.97;4995353;28;19956;-80
2021/04/22 08:08:04;;;;;;;;;;;;;;;20.75;28.49;95383.66;5014756;28;19933;-81
2021/04/22 08:10:30;;;;;;;;;;;;;;;20.71;28.69;95383.44;5021143;28;19917;-80
2021/04/22 08:12:55;;;;;;;;;;;;;;;20.67;28.83;95385.06;5024988;28;19956;-79
2021/04/22 08:15:21;;;;;;;;;;;;;;;20.69;29.27;95375.00;5006186;28;19917;-78
2021/04/22 08:17:46;;;;;;;;;;;;;;;20.70;28.43;95379.22;5025351;28;19918;-80
2021/04/22 08:20:19;;;;;;;;;;;;;;;20.72;27.65;95363.88;5007870;28;19917;-78
2021/04/22 08:22:44;;;;;;;;;;;;;;;20.82;27.66;95363.72;5028169;28;19957;-78
2021/04/22 08:25:11;;;;;;;;;;;;;;;20.82;28.30;95363.72;5037525;28;19929;-80
2021/04/22 08:27:36;;;;;;;;;;;;;;;20.85;27.88;95355.25;5030480;28;19929;-82
2021/04/22 08:30:02;;;;;;;;;;;;;;;20.86;27.56;95354.19;5015780;28;19940;-79
2021/04/22 08:32:27;;;;;;;;;;;;;;;20.90;27.77;95339.31;5015977;28;19968;-81
2021/04/22 08:34:52;;;;;;;;;;;;;;;20.89;27.84;95350.97;4998453;28;20103;-79
2021/04/22 08:37:18;;;;;;;;;;;;;;;20.78;27.99;95351.38;5015495;28;20357;-80
2021/04/22 08:39:43;;;;;;;;;;;;;;;20.79;28.03;95353.72;5002056;28;19943;-78
2021/04/22 08:42:08;;;;;;;;;;;;;;;20.77;28.46;95349.78;5025287;28;19944;-79
2021/04/22 08:44:33;;;;;;;;;;;;;;;20.61;26.18;95330.69;5022756;28;19933;-78
2021/04/22 08:46:59;;;;;;;;;;;;;;;20.35;25.19;95338.09;5009312;28;19929;-79
2021/04/22 08:49:24;;;;;;;;;;;;;;;19.98;25.21;95322.84;5023228;28;20300;-78
2021/04/22 08:51:49;;;;;;;;;;;;;;;19.76;27.22;95336.50;5021314;28;19913;-79
2021/04/22 08:54:15;;;;;;;;;;;;;;;19.77;28.00;95335.44;5016503;28;19940;-81
2021/04/22 08:56:40;;;;;;;;;;;;;;;19.89;26.29;95335.09;4997975;28;19971;-81
2021/04/22 08:59:06;;;;;;;;;;;;;;;19.87;24.71;95331.94;5014750;28;19921;-81
2021/04/22 09:01:32;;;;;;;;;;;;;;;19.58;24.62;95332.69;5015586;28;19967;-81
2021/04/22 09:03:57;;;;;;;;;;;;;;;19.39;25.62;95326.47;5013260;28;19925;-79
2021/04/22 09:06:23;;;;;;;;;;;;;;;19.45;26.57;95320.09;5012974;28;19929;-79
2021/04/22 09:08:49;;;;;;;;;;;;;;;19.59;24.69;95322.91;5025642;28;19993;-80
2021/04/22 09:11:15;;;;;;;;;;;;;;;19.45;25.20;95331.41;5025909;28;19921;-80
2021/04/22 09:13:41;;;;;;;;;;;;;;;19.44;24.78;95327.22;5025557;28;19972;-80
2021/04/22 09:16:07;;;;;;;;;;;;;;;19.50;24.25;95323.47;5029395;28;19913;-78
2021/04/22 09:18:38;;;;;;;;;;;;;;;19.65;23.95;95313.88;5027872;28;19921;-79
2021/04/22 09:21:03;;;;;;;;;;;;;;;19.70;23.83;95293.56;5017147;28;19924;-82
2021/04/22 09:23:29;;;;;;;;;;;;;;;19.81;23.55;95311.91;5014868;28;19917;-83
2021/04/22 09:26:02;;;;;;;;;;;;;;;19.71;24.16;95310.94;4998169;28;19960;-83
2021/04/22 09:28:34;;;;;;;;;;;;;;;19.71;23.75;95303.03;5013799;28;19921;-83
2021/04/22 09:30:59;;;;;;;;;;;;;;;19.60;23.69;95306.03;4997599;28;19925;-83
2021/04/22 09:33:29;;;;;;;;;;;;;;;19.58;24.41;95298.38;5015124;28;20411;-82
2021/04/22 09:36:04;;;;;;;;;;;;;;;19.56;23.55;95284.69;5162978;22;20048;-82
2021/04/22 09:38:30;;;;;;;;;;;;;;;19.37;22.77;95289.81;5001017;28;19968;-82
2021/04/22 09:40:55;;;;;;;;;;;;;;;19.13;22.32;95302.88;5006318;28;19932;-82
2021/04/22 09:43:20;;;;;;;;;;;;;;;19.02;21.09;95297.94;5020033;28;19918;-81
2021/04/22 09:45:47;;;;;;;;;;;;;;;19.08;23.59;95289.75;5018407;28;19944;-82
2021/04/22 09:48:16;;;;;;;;;;;;;;;19.18;24.43;95288.88;5123816;23;19937;-82
2021/04/22 09:50:42;;;;;;;;;;;;;;;19.17;25.42;95293.38;5005781;28;19944;-81
2021/04/22 09:53:08;;;;;;;;;;;;;;;19.18;24.28;95279.13;5003216;28;19917;-82
2021/04/22 09:55:33;;;;;;;;;;;;;;;19.30;24.15;95280.63;5004164;28;20002;-82
2021/04/22 09:57:58;;;;;;;;;;;;;;;19.19;23.90;95285.19;5004127;28;20324;-81
2021/04/22 10:00:27;;;;;;;;;;;;;;;19.07;21.92;95271.56;5006591;28;19965;-81
2021/04/22 10:02:55;;;;;;;;;;;;;;;19.05;22.53;95277.13;5002193;28;20004;-82
2021/04/22 10:05:32;;;;;;;;;;;;;;;18.94;22.94;95269.53;5007710;28;19918;-82
2021/04/22 10:08:04;;;;;;;;;;;;;;;18.96;23.05;95273.47;5005559;28;20223;-81
2021/04/22 10:10:30;;;;;;;;;;;;;;;18.90;23.29;95261.41;5007142;28;20004;-80
2021/04/22 10:12:58;;;;;;;;;;;;;;;18.92;22.85;95253.22;5009273;28;19960;-81
2021/04/22 10:15:24;;;;;;;;;;;;;;;18.86;23.12;95261.13;5003288;28;19977;-81
2021/04/22 10:17:55;;;;;;;;;;;;;;;18.85;24.21;95242.97;5007675;28;19960;-78
2021/04/22 10:20:21;;;;;;;;;;;;;;;18.92;24.42;95247.94;5004555;28;19957;-80
2021/04/22 10:22:47;;;;;;;;;;;;;;;18.79;24.11;95244.84;5000260;28;19925;-78
2021/04/22 10:25:14;;;;;;;;;;;;;;;18.88;23.81;95237.16;5003781;28;19918;-79
2021/04/22 10:27:40;;;;;;;;;;;;;;;18.93;25.10;95245.03;5023735;22;20098;-79
2021/04/22 10:30:06;;;;;;;;;;;;;;;18.96;25.67;95244.47;4974035;28;20381;-79
2021/04/22 10:32:31;;;;;;;;;;;;;;;19.10;24.57;95229.63;4974303;28;19942;-79
2021/04/22 10:34:57;;;;;;;;;;;;;;;19.12;24.66;95230.13;4973475;28;19922;-79
2021/04/22 10:37:22;;;;;;;;;;;;;;;19.06;24.88;95236.50;4981866;23;19922;-79
2021/04/22 10:39:48;;;;;;;;;;;;;;;19.07;24.85;95230.19;4981111;28;19929;-79
2021/04/22 10:42:16;;;;;;;;;;;;;;;19.16;24.70;95223.25;4973591;28;19917;-78
2021/04/22 10:44:53;;;;;;;;;;;;;;;19.16;24.85;95233.00;4974547;28;19929;-78
2021/04/22 10:47:19;;;;;;;;;;;;;;;19.14;23.98;95230.66;4972783;28;19965;-80
2021/04/22 10:49:45;;;;;;;;;;;;;;;19.18;25.06;95218.47;4974099;28;19918;-82
2021/04/22 10:52:11;;;;;;;;;;;;;;;19.25;24.56;95225.31;4972845;28;19925;-80
2021/04/22 10:54:40;;;;;;;;;;;;;;;19.33;25.00;95211.50;4974060;28;19914;-83
2021/04/22 10:59:34;;;;;;;;;;;;;;;19.40;25.54;95217.28;4992189;28;20302;-83
2021/04/22 11:01:59;;;;;;;;;;;;;;;19.41;24.51;95209.09;4991699;28;20368;-83
2021/04/22 11:04:33;;;;;;;;;;;;;;;19.23;24.87;95204.50;4972916;28;20390;-83
2021/04/22 11:06:58;;;;;;;;;;;;;;;19.13;25.80;95205.34;4973089;28;19918;-82
2021/04/22 11:09:25;;;;;;;;;;;;;;;19.06;24.67;95204.09;4976404;28;19938;-82
2021/04/22 11:11:54;;;;;;;;;;;;;;;19.00;25.14;95211.25;4986117;28;19937;-81
2021/04/22 11:14:20;;;;;;;;;;;;;;;19.02;24.57;95209.13;4990513;28;19918;-82
2021/04/22 11:16:52;;;;;;;;;;;;;;;19.00;24.57;95192.00;4971956;28;20033;-80
2021/04/22 11:19:21;;;;;;;;;;;;;;;19.03;25.53;95192.22;4971995;28;20072;-81
2021/04/22 11:21:56;;;;;;;;;;;;;;;19.06;26.20;95191.72;4973389;28;19918;-83
2021/04/22 11:24:25;;;;;;;;;;;;;;;19.15;26.35;95184.75;4955694;28;20393;-83
2021/04/22 11:26:50;;;;;;;;;;;;;;;19.16;25.70;95186.34;4973867;28;19922;-83
2021/04/22 11:29:17;;;;;;;;;;;;;;;19.30;25.87;95185.72;5029128;23;19922;-81
2021/04/22 11:31:46;;;;;;;;;;;;;;;19.41;25.44;95176.66;4979889;28;20059;-82
2021/04/22 11:34:12;;;;;;;;;;;;;;;19.46;25.51;95168.69;4982256;28;19918;-83
2021/04/22 11:36:47;;;;;;;;;;;;;;;19.48;24.06;95166.53;4978701;28;19918;-83
2021/04/22 11:39:12;;;;;;;;;;;;;;;19.55;25.21;95155.72;4980754;28;19980;-83
2021/04/22 11:41:37;;;;;;;;;;;;;;;19.63;25.57;95157.72;4982720;28;19914;-82
2021/04/22 11:44:06;;;;;;;;;;;;;;;19.68;24.85;95163.72;4988416;28;20441;-83
2021/04/22 11:46:35;;;;;;;;;;;;;;;19.89;24.86;95155.63;4987287;28;19953;-83
2021/04/22 11:49:01;;;;;;;;;;;;;;;20.13;24.32;95159.00;4986162;28;19957;-81
2021/04/22 11:51:35;;;;;;;;;;;;;;;20.28;23.59;95153.53;4986901;28;19940;-79
2021/04/22 11:54:00;;;;;;;;;;;;;;;20.46;23.29;95138.00;4991563;28;20380;-82
2021/04/22 11:56:25;;;;;;;;;;;;;;;20.46;23.17;95145.94;5005935;28;19925;-81
2021/04/22 11:58:51;;;;;;;;;;;;;;;20.47;23.07;95134.28;4988798;28;19945;-80
2021/04/22 12:01:16;;;;;;;;;;;;;;;20.44;23.14;95140.16;4988839;28;19933;-81
2021/04/22 12:03:41;;;;;;;;;;;;;;;20.52;22.93;95136.88;4989684;28;19977;-80
2021/04/22 12:11:23;;;;;;;;;;;;;;;20.39;21.23;95130.41;5038204;23;19965;-84
2021/04/22 12:13:49;;;;;;;;;;;;;;;20.45;21.75;95126.66;5011164;28;19933;-81
2021/04/22 12:16:15;;;;;;;;;;;;;;;20.80;21.51;95112.13;5011239;28;19922;-83
2021/04/22 12:18:41;;;;;;;;;;;;;;;20.78;21.59;95114.28;5005964;28;19920;-88
2021/04/22 12:21:12;;;;;;;;;;;;;;;20.69;21.73;95121.31;5010817;28;19980;-84
2021/04/22 12:23:39;;;;;;;;;;;;;;;20.87;21.91;95115.19;5022198;28;19918;-83
2021/04/22 12:26:17;;;;;;;;;;;;;;;20.83;21.41;95119.50;5006657;28;20355;-84
2021/04/22 12:28:49;;;;;;;;;;;;;;;20.79;21.38;95121.13;5004921;28;19917;-84
2021/04/22 12:31:21;;;;;;;;;;;;;;;20.96;20.95;95113.44;5006041;28;19917;-84
2021/04/22 12:33:47;;;;;;;;;;;;;;;21.01;19.84;95107.31;5006512;28;19928;-84
2021/04/22 12:36:12;;;;;;;;;;;;;;;20.94;19.91;95102.38;4988150;28;19918;-83
2021/04/22 12:38:38;;;;;;;;;;;;;;;21.10;18.90;95107.41;5006788;28;19940;-84
2021/04/22 12:41:04;;;;;;;;;;;;;;;21.22;19.20;95102.47;5010050;28;19917;-83
2021/04/22 12:43:30;;;;;;;;;;;;;;;21.23;19.67;95096.09;5007389;28;19917;-84
2021/04/22 12:45:56;;;;;;;;;;;;;;;21.25;19.45;95089.47;5005093;28;19944;-83
2021/04/22 12:48:22;;;;;;;;;;;;;;;21.23;20.07;95077.56;4990270;28;19914;-84
2021/04/22 12:50:47;;;;;;;;;;;;;;;21.25;19.97;95081.53;5010042;28;19918;-84
2021/04/22 12:53:57;;;;;;;;;;;;;;;21.16;20.38;95088.56;5012173;28;19941;-84
2021/04/22 12:56:22;;;;;;;;;;;;;;;21.17;19.23;95091.97;5008038;28;19967;-84
2021/04/22 12:58:50;;;;;;;;;;;;;;;21.12;18.84;95078.81;5010586;28;19921;-82